• Join FlightAware (Why Join?)
  • Login
  • US Flag GB Flag 
19:00 EST


 

Airport Tracker/Info


-or-


 

Live Flight TrackerFlight Track Log ✈ EJA982 ✈ 26-Apr-2013 ✈ KRST - KOMA

Flight Track Log - Related Links

Times and Time Zones

All times are in EDT time to prevent confusion due to time zone crossing. See the EJA982 flight status page for this flight to view local times or setup timezone preferences in your user account.

Time Position Orientation Groundspeed Altitude Reporting Facility
EDT Latitude Longitude Course Direction KTS MPH feet Rate Location/Type
18:18 43.8383 -92.5450 216° Southwest 203 234 4,500  Level Minneapolis Center
18:19 43.7847 -92.6039 218° Southwest 247 284 8,000 2,460 Climbing Minneapolis Center
18:20 43.7208 -92.6722 218° Southwest 271 312 9,700 1,620 Climbing Minneapolis Center
18:21 43.6481 -92.7494 218° Southwest 349 402 11,400 1,860 Climbing Minneapolis Center
18:22 43.5589 -92.8442 218° Southwest 377 434 13,600 1,980 Climbing Minneapolis Center
18:23 43.4377 -92.9623 216° Southwest  Level FlightAware Approximate
18:23 43.4719 -92.9361 218° Southwest 396 456 15,500  Level Minneapolis Center
18:24 43.3758 -93.0367 217° Southwest 405 466 17,700 1,860 Climbing Minneapolis Center
18:25 43.2944 -93.1228 218° Southwest 404 465 19,400 1,080 Climbing Minneapolis Center
18:26 43.2058 -93.2272 221° Southwest 420 483 20,000 240 Climbing Minneapolis Center
18:27 43.0919 -93.3586 220° Southwest 447 514 20,000  Level Minneapolis Center
18:28 42.9975 -93.4703 221° Southwest 453 521 20,000  Level Minneapolis Center
18:29 42.9039 -93.5792 220° Southwest 446 513 20,000 -120 Level Minneapolis Center
18:30 42.8094 -93.6878 220° Southwest 449 517 19,800 -1,380 Descending Minneapolis Center
18:31 42.7144 -93.7925 219° Southwest 445 512 17,200 -2,100 Descending Minneapolis Center
18:32 42.6117 -93.9125 221° Southwest 413 475 15,500 -2,040 Descending Minneapolis Center
18:33 42.5258 -94.0117 220° Southwest 410 472 13,000 -2,160 Descending Minneapolis Center
18:34 42.4403 -94.1072 220° Southwest 404 465 11,100 -1,440 Descending Minneapolis Center
18:35 42.3583 -94.2019 221° Southwest 394 453 10,100 -540 Descending Minneapolis Center
18:36 42.2594 -94.3122 220° Southwest 393 452 10,000 -60 Descending Minneapolis Center
18:37 42.1664 -94.4100 218° Southwest 398 458 10,000  Level Minneapolis Center
18:38 42.0831 -94.5053 220° Southwest 395 455 10,000  Level Minneapolis Center
18:39 42.0028 -94.5925 219° Southwest 395 455 10,000  Level Minneapolis Center
18:41 41.9211 -94.6861 220° Southwest 390 449 10,000  Level Minneapolis Center
18:42 41.8364 -94.7794 219° Southwest 391 450 10,000  Level Minneapolis Center
18:43 41.7336 -94.8922 219° Southwest 395 455 10,000  Level Minneapolis Center
18:44 41.6475 -94.9858 219° Southwest 396 456 10,000  Level Minneapolis Center
18:44 41.6147 -95.0428 232° Southwest 390 449 10,000  Level Minneapolis Center
18:45 41.5633 -95.0764 206° Southwest 393 452 10,000  Level Minneapolis Center
18:45 41.5136 -95.1506 228° Southwest 378 435 10,000  Level Minneapolis Center
18:46 41.4836 -95.1650 200° South 385 443 10,000 -540 Level Minneapolis Center
18:46 41.4853 -95.2517 271° West 280 322 9,500 -540 Descending Minneapolis Center
18:47 41.4764 -95.2500 172° South 331 381 9,500 -2,040 Level Minneapolis Center
18:47 41.4858 -95.3464 277° West 270 311 7,700 -2,040 Descending Minneapolis Center
18:48 41.4817 -95.3758 259° West 295 339 7,400 -1,140 Descending Minneapolis Center
18:48 41.4889 -95.4489 278° West 276 318 6,600 -1,200 Descending Minneapolis Center
18:49 41.4864 -95.4944 266° West 280 322 6,200 -600 Descending Minneapolis Center
18:49 41.4914 -95.5461 277° West 262 302 6,000 -240 Descending Minneapolis Center
18:50 41.4911 -95.5922 270° West 272 313 6,000  Level Minneapolis Center
18:50 41.4969 -95.6594 277° West 266 306 6,000 -120 Level Minneapolis Center
18:51 41.4969 -95.6900 270° West 268 308 5,900 -1,140 Descending Minneapolis Center
18:51 41.5014 -95.7564 275° West 265 305 4,900 -1,500 Descending Minneapolis Center
18:52 41.5036 -95.7872 276° West 266 306 4,400 -900 Descending Minneapolis Center
18:52 41.5039 -95.8536 270° West 265 305 4,000 -420 Descending Minneapolis Center
18:53 41.4983 -95.8617 227° Southwest 264 304 4,000 -540 Level Minneapolis Center
18:53 41.4694 -95.9356 242° Southwest 251 289 3,500 -1,020 Descending Minneapolis Center
18:54 41.4397 -95.9608 213° Southwest 250 288 3,000 -900 Descending Minneapolis Center
18:54 41.4186 -95.9886 225° Southwest 201 231 2,600 -300 Descending Minneapolis Center
18:55 41.3953 -95.9789 163° South 210 242 2,700 -120 Climbing Minneapolis Center
18:55 41.3797 -95.9708 159° South 132 152 2,500 -540 Descending Minneapolis Center
18:56 41.3625 -95.9456 132° Southeast 166 191 2,200 -720 Descending Minneapolis Center
18:56 41.3483 -95.9383 159° South 134 154 1,800 -720 Descending Minneapolis Center
18:57 41.3322 -95.9175 136° Southeast 146 168 1,500 -480 Descending Minneapolis Center
18:58 41.3069 -95.8933 144° Southeast 139 160 1,100 -420 Descending Minneapolis Center